sensor_id;sensor_type;location;lat;lon;timestamp;temperature;humidity
48019;DHT22;33786;48.690;9.562;2023-05-15T00:00:34;11.20;99.90
48019;DHT22;33786;48.690;9.562;2023-05-15T00:03:03;11.20;99.90
48019;DHT22;33786;48.690;9.562;2023-05-15T00:05:30;11.20;99.90
48019;DHT22;33786;48.690;9.562;2023-05-15T00:07:57;11.20;99.90
48019;DHT22;33786;48.690;9.562;2023-05-15T00:10:24;11.20;99.90
48019;DHT22;33786;48.690;9.562;2023-05-15T00:12:50;11.20;99.90
48019;DHT22;33786;48.690;9.562;2023-05-15T00:15:17;11.20;99.90
48019;DHT22;33786;48.690;9.562;2023-05-15T00:17:44;11.20;99.90
48019;DHT22;33786;48.690;9.562;2023-05-15T00:20:10;11.20;99.90
48019;DHT22;33786;48.690;9.562;2023-05-15T00:22:37;11.20;99.90
48019;DHT22;33786;48.690;9.562;2023-05-15T00:25:04;11.30;99.90
48019;DHT22;33786;48.690;9.562;2023-05-15T00:27:31;11.30;99.90
48019;DHT22;33786;48.690;9.562;2023-05-15T00:29:58;11.30;99.90
48019;DHT22;33786;48.690;9.562;2023-05-15T00:32:25;11.20;99.90
48019;DHT22;33786;48.690;9.562;2023-05-15T00:34:52;11.20;99.90
48019;DHT22;33786;48.690;9.562;2023-05-15T00:37:18;11.20;99.90
48019;DHT22;33786;48.690;9.562;2023-05-15T00:39:45;11.10;99.90
48019;DHT22;33786;48.690;9.562;2023-05-15T00:42:12;11.10;99.90
48019;DHT22;33786;48.690;9.562;2023-05-15T00:44:39;11.10;99.90
48019;DHT22;33786;48.690;9.562;2023-05-15T00:47:06;11.10;99.90
48019;DHT22;33786;48.690;9.562;2023-05-15T00:49:35;11.10;99.90
48019;DHT22;33786;48.690;9.562;2023-05-15T00:52:02;11.10;99.90
48019;DHT22;33786;48.690;9.562;2023-05-15T00:54:31;11.00;99.90
48019;DHT22;33786;48.690;9.562;2023-05-15T00:56:58;11.10;99.90
48019;DHT22;33786;48.690;9.562;2023-05-15T00:59:25;11.10;99.90
48019;DHT22;33786;48.690;9.562;2023-05-15T01:01:53;11.00;99.90
48019;DHT22;33786;48.690;9.562;2023-05-15T01:04:20;11.00;99.90
48019;DHT22;33786;48.690;9.562;2023-05-15T01:06:46;11.00;99.90
48019;DHT22;33786;48.690;9.562;2023-05-15T01:09:19;11.00;99.90
48019;DHT22;33786;48.690;9.562;2023-05-15T01:11:46;11.00;99.90
48019;DHT22;33786;48.690;9.562;2023-05-15T01:14:15;11.00;99.90
48019;DHT22;33786;48.690;9.562;2023-05-15T01:16:42;11.00;99.90
48019;DHT22;33786;48.690;9.562;2023-05-15T01:19:09;11.00;99.90
48019;DHT22;33786;48.690;9.562;2023-05-15T01:24:20;11.00;99.90
48019;DHT22;33786;48.690;9.562;2023-05-15T01:32:05;10.80;99.90
48019;DHT22;33786;48.690;9.562;2023-05-15T01:34:51;10.80;99.90
48019;DHT22;33786;48.690;9.562;2023-05-15T01:37:20;10.70;99.90
48019;DHT22;33786;48.690;9.562;2023-05-15T01:39:48;10.70;99.90
48019;DHT22;33786;48.690;9.562;2023-05-15T01:42:15;10.70;99.90
48019;DHT22;33786;48.690;9.562;2023-05-15T01:44:54;10.70;99.90
48019;DHT22;33786;48.690;9.562;2023-05-15T01:47:22;10.60;99.90
48019;DHT22;33786;48.690;9.562;2023-05-15T01:49:51;10.60;99.90
48019;DHT22;33786;48.690;9.562;2023-05-15T01:52:22;10.70;99.90
48019;DHT22;33786;48.690;9.562;2023-05-15T01:54:50;10.70;99.90
48019;DHT22;33786;48.690;9.562;2023-05-15T01:57:18;10.70;99.90
48019;DHT22;33786;48.690;9.562;2023-05-15T01:59:45;10.80;99.90
48019;DHT22;33786;48.690;9.562;2023-05-15T02:02:12;10.80;99.90
48019;DHT22;33786;48.690;9.562;2023-05-15T02:04:41;10.70;99.90
48019;DHT22;33786;48.690;9.562;2023-05-15T02:07:08;10.80;99.90
48019;DHT22;33786;48.690;9.562;2023-05-15T02:09:35;10.80;99.90
48019;DHT22;33786;48.690;9.562;2023-05-15T02:12:02;10.80;99.90
48019;DHT22;33786;48.690;9.562;2023-05-15T02:14:29;10.80;99.90
48019;DHT22;33786;48.690;9.562;2023-05-15T02:16:56;10.80;99.90
48019;DHT22;33786;48.690;9.562;2023-05-15T02:19:23;10.80;99.90
48019;DHT22;33786;48.690;9.562;2023-05-15T02:21:50;10.80;99.90
48019;DHT22;33786;48.690;9.562;2023-05-15T02:24:17;10.80;99.90
48019;DHT22;33786;48.690;9.562;2023-05-15T02:29:21;10.80;99.90
48019;DHT22;33786;48.690;9.562;2023-05-15T02:31:58;10.80;99.90
48019;DHT22;33786;48.690;9.562;2023-05-15T02:34:35;10.80;99.90
48019;DHT22;33786;48.690;9.562;2023-05-15T02:37:04;10.90;99.90
48019;DHT22;33786;48.690;9.562;2023-05-15T02:39:31;10.90;99.90
48019;DHT22;33786;48.690;9.562;2023-05-15T02:41:58;10.90;99.90
48019;DHT22;33786;48.690;9.562;2023-05-15T02:44:26;10.90;99.90
48019;DHT22;33786;48.690;9.562;2023-05-15T02:46:54;10.80;99.90
48019;DHT22;33786;48.690;9.562;2023-05-15T02:49:21;10.80;99.90
48019;DHT22;33786;48.690;9.562;2023-05-15T02:51:47;10.90;99.90
48019;DHT22;33786;48.690;9.562;2023-05-15T02:54:14;10.80;99.90
48019;DHT22;33786;48.690;9.562;2023-05-15T02:56:41;10.70;99.90
48019;DHT22;33786;48.690;9.562;2023-05-15T02:59:08;10.70;99.90
48019;DHT22;33786;48.690;9.562;2023-05-15T03:01:35;10.80;99.90
48019;DHT22;33786;48.690;9.562;2023-05-15T03:04:02;10.80;99.90
48019;DHT22;33786;48.690;9.562;2023-05-15T03:06:29;10.80;99.90
48019;DHT22;33786;48.690;9.562;2023-05-15T03:08:57;10.80;99.90
48019;DHT22;33786;48.690;9.562;2023-05-15T03:11:23;10.80;99.90
48019;DHT22;33786;48.690;9.562;2023-05-15T03:13:50;10.80;99.90
48019;DHT22;33786;48.690;9.562;2023-05-15T03:16:17;10.90;99.90
48019;DHT22;33786;48.690;9.562;2023-05-15T03:18:43;10.90;99.90
48019;DHT22;33786;48.690;9.562;2023-05-15T03:21:11;10.90;99.90
48019;DHT22;33786;48.690;9.562;2023-05-15T03:23:38;10.80;99.90
48019;DHT22;33786;48.690;9.562;2023-05-15T03:26:05;10.80;99.90
48019;DHT22;33786;48.690;9.562;2023-05-15T03:28:31;10.80;99.90
48019;DHT22;33786;48.690;9.562;2023-05-15T03:30:58;10.90;99.90
48019;DHT22;33786;48.690;9.562;2023-05-15T03:33:25;10.80;99.90
48019;DHT22;33786;48.690;9.562;2023-05-15T03:35:51;10.80;99.90
48019;DHT22;33786;48.690;9.562;2023-05-15T03:38:18;10.80;99.90
48019;DHT22;33786;48.690;9.562;2023-05-15T03:40:45;10.80;99.90
48019;DHT22;33786;48.690;9.562;2023-05-15T03:43:13;10.70;99.90
48019;DHT22;33786;48.690;9.562;2023-05-15T03:45:40;10.70;99.90
48019;DHT22;33786;48.690;9.562;2023-05-15T03:48:07;10.70;99.90
48019;DHT22;33786;48.690;9.562;2023-05-15T03:50:34;10.70;99.90
48019;DHT22;33786;48.690;9.562;2023-05-15T03:53:00;10.70;99.90
48019;DHT22;33786;48.690;9.562;2023-05-15T03:55:27;10.70;99.90
48019;DHT22;33786;48.690;9.562;2023-05-15T03:57:54;10.80;99.90
48019;DHT22;33786;48.690;9.562;2023-05-15T04:00:21;10.80;99.90
48019;DHT22;33786;48.690;9.562;2023-05-15T04:02:48;10.80;99.90
48019;DHT22;33786;48.690;9.562;2023-05-15T04:05:15;10.90;99.90
48019;DHT22;33786;48.690;9.562;2023-05-15T04:07:42;10.80;99.90
48019;DHT22;33786;48.690;9.562;2023-05-15T04:10:09;10.90;99.90
48019;DHT22;33786;48.690;9.562;2023-05-15T04:12:36;11.00;99.90
48019;DHT22;33786;48.690;9.562;2023-05-15T04:15:18;11.00;99.90
48019;DHT22;33786;48.690;9.562;2023-05-15T04:17:48;11.10;99.90
48019;DHT22;33786;48.690;9.562;2023-05-15T04:20:16;11.20;99.90
48019;DHT22;33786;48.690;9.562;2023-05-15T04:22:43;11.40;99.90
48019;DHT22;33786;48.690;9.562;2023-05-15T04:25:10;11.90;99.90
48019;DHT22;33786;48.690;9.562;2023-05-15T04:27:37;12.30;99.90
48019;DHT22;33786;48.690;9.562;2023-05-15T04:30:04;12.40;99.90
48019;DHT22;33786;48.690;9.562;2023-05-15T04:32:31;12.30;99.90
48019;DHT22;33786;48.690;9.562;2023-05-15T04:34:59;12.10;99.90
48019;DHT22;33786;48.690;9.562;2023-05-15T04:37:27;12.10;99.90
48019;DHT22;33786;48.690;9.562;2023-05-15T04:39:54;12.00;99.90
48019;DHT22;33786;48.690;9.562;2023-05-15T04:42:20;11.90;99.90
48019;DHT22;33786;48.690;9.562;2023-05-15T04:44:47;11.80;99.90
48019;DHT22;33786;48.690;9.562;2023-05-15T04:47:14;11.80;99.90
48019;DHT22;33786;48.690;9.562;2023-05-15T04:49:41;11.80;99.90
48019;DHT22;33786;48.690;9.562;2023-05-15T04:52:07;11.80;99.90
48019;DHT22;33786;48.690;9.562;2023-05-15T04:54:34;11.80;99.90
48019;DHT22;33786;48.690;9.562;2023-05-15T04:57:01;11.90;99.90
48019;DHT22;33786;48.690;9.562;2023-05-15T04:59:28;11.80;99.90
48019;DHT22;33786;48.690;9.562;2023-05-15T05:01:55;11.90;99.90
48019;DHT22;33786;48.690;9.562;2023-05-15T05:04:22;12.00;99.90
48019;DHT22;33786;48.690;9.562;2023-05-15T05:06:48;12.10;99.90
48019;DHT22;33786;48.690;9.562;2023-05-15T05:09:17;12.20;99.90
48019;DHT22;33786;48.690;9.562;2023-05-15T05:11:43;12.30;99.90
48019;DHT22;33786;48.690;9.562;2023-05-15T05:14:10;12.40;99.90
48019;DHT22;33786;48.690;9.562;2023-05-15T05:16:37;12.40;99.90
48019;DHT22;33786;48.690;9.562;2023-05-15T05:19:04;12.50;99.90
48019;DHT22;33786;48.690;9.562;2023-05-15T05:21:31;12.60;99.90
48019;DHT22;33786;48.690;9.562;2023-05-15T05:23:58;12.60;99.90
48019;DHT22;33786;48.690;9.562;2023-05-15T05:26:26;12.60;99.90
48019;DHT22;33786;48.690;9.562;2023-05-15T05:28:53;13.10;99.90
48019;DHT22;33786;48.690;9.562;2023-05-15T05:31:19;13.50;99.90
48019;DHT22;33786;48.690;9.562;2023-05-15T05:33:47;13.60;99.90
48019;DHT22;33786;48.690;9.562;2023-05-15T05:36:14;13.90;99.90
48019;DHT22;33786;48.690;9.562;2023-05-15T05:38:41;14.30;99.90
48019;DHT22;33786;48.690;9.562;2023-05-15T05:41:08;15.00;99.90
48019;DHT22;33786;48.690;9.562;2023-05-15T05:43:35;16.00;99.90
48019;DHT22;33786;48.690;9.562;2023-05-15T05:46:02;17.30;99.90
48019;DHT22;33786;48.690;9.562;2023-05-15T05:48:28;18.20;99.90
48019;DHT22;33786;48.690;9.562;2023-05-15T05:50:56;18.30;99.80
48019;DHT22;33786;48.690;9.562;2023-05-15T05:53:23;18.20;99.90
48019;DHT22;33786;48.690;9.562;2023-05-15T05:55:50;18.10;99.90
48019;DHT22;33786;48.690;9.562;2023-05-15T05:58:16;17.90;99.90
48019;DHT22;33786;48.690;9.562;2023-05-15T06:00:49;17.90;99.90
48019;DHT22;33786;48.690;9.562;2023-05-15T06:03:16;18.20;99.90
48019;DHT22;33786;48.690;9.562;2023-05-15T06:05:43;18.00;99.90
48019;DHT22;33786;48.690;9.562;2023-05-15T06:08:10;17.90;99.90
48019;DHT22;33786;48.690;9.562;2023-05-15T06:10:37;17.30;99.90
48019;DHT22;33786;48.690;9.562;2023-05-15T06:13:04;16.90;99.90
48019;DHT22;33786;48.690;9.562;2023-05-15T06:15:30;16.40;99.90
48019;DHT22;33786;48.690;9.562;2023-05-15T06:17:57;16.40;99.90
48019;DHT22;33786;48.690;9.562;2023-05-15T06:20:24;16.30;99.90
48019;DHT22;33786;48.690;9.562;2023-05-15T06:22:51;16.40;99.90
48019;DHT22;33786;48.690;9.562;2023-05-15T06:25:18;17.20;99.90
48019;DHT22;33786;48.690;9.562;2023-05-15T06:27:45;18.60;99.80
48019;DHT22;33786;48.690;9.562;2023-05-15T06:30:12;19.50;97.70
48019;DHT22;33786;48.690;9.562;2023-05-15T06:32:39;20.30;96.80
48019;DHT22;33786;48.690;9.562;2023-05-15T06:35:08;20.10;96.00
48019;DHT22;33786;48.690;9.562;2023-05-15T06:37:34;19.30;96.60
48019;DHT22;33786;48.690;9.562;2023-05-15T06:40:02;18.30;98.00
48019;DHT22;33786;48.690;9.562;2023-05-15T06:42:28;17.60;99.30
48019;DHT22;33786;48.690;9.562;2023-05-15T06:44:56;17.00;99.90
48019;DHT22;33786;48.690;9.562;2023-05-15T06:47:23;16.70;99.90
48019;DHT22;33786;48.690;9.562;2023-05-15T06:49:50;16.60;99.90
48019;DHT22;33786;48.690;9.562;2023-05-15T06:52:16;17.00;99.90
48019;DHT22;33786;48.690;9.562;2023-05-15T06:54:43;18.10;99.90
48019;DHT22;33786;48.690;9.562;2023-05-15T06:57:10;19.40;99.10
48019;DHT22;33786;48.690;9.562;2023-05-15T06:59:37;20.90;95.90
48019;DHT22;33786;48.690;9.562;2023-05-15T07:02:03;22.30;94.40
48019;DHT22;33786;48.690;9.562;2023-05-15T07:04:30;23.40;91.80
48019;DHT22;33786;48.690;9.562;2023-05-15T07:06:57;22.90;91.60
48019;DHT22;33786;48.690;9.562;2023-05-15T07:09:24;21.90;92.60
48019;DHT22;33786;48.690;9.562;2023-05-15T07:11:51;22.70;92.10
48019;DHT22;33786;48.690;9.562;2023-05-15T07:14:17;24.80;89.40
48019;DHT22;33786;48.690;9.562;2023-05-15T07:16:44;25.90;85.60
48019;DHT22;33786;48.690;9.562;2023-05-15T07:19:15;27.40;80.80
48019;DHT22;33786;48.690;9.562;2023-05-15T07:21:42;27.30;79.40
48019;DHT22;33786;48.690;9.562;2023-05-15T07:24:09;26.90;79.50
48019;DHT22;33786;48.690;9.562;2023-05-15T07:26:36;27.30;79.10
48019;DHT22;33786;48.690;9.562;2023-05-15T07:29:22;26.20;79.10
48019;DHT22;33786;48.690;9.562;2023-05-15T07:31:49;25.20;81.50
48019;DHT22;33786;48.690;9.562;2023-05-15T07:34:16;23.40;84.50
48019;DHT22;33786;48.690;9.562;2023-05-15T07:36:42;22.60;86.30
48019;DHT22;33786;48.690;9.562;2023-05-15T07:39:09;22.10;87.90
48019;DHT22;33786;48.690;9.562;2023-05-15T07:41:36;21.40;90.20
48019;DHT22;33786;48.690;9.562;2023-05-15T07:44:03;20.40;91.40
48019;DHT22;33786;48.690;9.562;2023-05-15T07:46:29;20.50;91.80
48019;DHT22;33786;48.690;9.562;2023-05-15T07:48:56;21.00;91.20
48019;DHT22;33786;48.690;9.562;2023-05-15T07:51:23;21.60;91.10
48019;DHT22;33786;48.690;9.562;2023-05-15T07:53:50;23.70;87.40
48019;DHT22;33786;48.690;9.562;2023-05-15T07:56:17;24.30;85.00
48019;DHT22;33786;48.690;9.562;2023-05-15T07:58:43;25.00;84.90
48019;DHT22;33786;48.690;9.562;2023-05-15T08:01:10;25.70;80.80
48019;DHT22;33786;48.690;9.562;2023-05-15T08:03:37;25.50;83.60
48019;DHT22;33786;48.690;9.562;2023-05-15T08:06:04;25.50;80.50
48019;DHT22;33786;48.690;9.562;2023-05-15T08:08:31;24.50;82.30
48019;DHT22;33786;48.690;9.562;2023-05-15T08:10:57;23.20;87.00
48019;DHT22;33786;48.690;9.562;2023-05-15T08:13:24;22.50;86.60
48019;DHT22;33786;48.690;9.562;2023-05-15T08:15:51;22.10;89.70
48019;DHT22;33786;48.690;9.562;2023-05-15T08:18:17;22.60;89.60
48019;DHT22;33786;48.690;9.562;2023-05-15T08:20:44;23.70;87.20
48019;DHT22;33786;48.690;9.562;2023-05-15T08:23:11;24.30;85.40
48019;DHT22;33786;48.690;9.562;2023-05-15T08:25:40;24.50;85.00
48019;DHT22;33786;48.690;9.562;2023-05-15T08:28:07;24.00;85.40
48019;DHT22;33786;48.690;9.562;2023-05-15T08:30:34;24.40;87.20
48019;DHT22;33786;48.690;9.562;2023-05-15T08:33:01;24.40;85.00
48019;DHT22;33786;48.690;9.562;2023-05-15T08:35:28;23.70;85.30
48019;DHT22;33786;48.690;9.562;2023-05-15T08:37:55;23.20;84.30
48019;DHT22;33786;48.690;9.562;2023-05-15T08:40:22;22.80;85.20
48019;DHT22;33786;48.690;9.562;2023-05-15T08:43:08;22.20;87.00
48019;DHT22;33786;48.690;9.562;2023-05-15T08:45:39;22.20;87.70
48019;DHT22;33786;48.690;9.562;2023-05-15T08:48:08;22.20;89.80
48019;DHT22;33786;48.690;9.562;2023-05-15T08:50:42;22.50;89.80
48019;DHT22;33786;48.690;9.562;2023-05-15T08:53:13;22.80;88.60
48019;DHT22;33786;48.690;9.562;2023-05-15T08:55:39;22.90;88.30
48019;DHT22;33786;48.690;9.562;2023-05-15T08:58:07;22.40;88.00
48019;DHT22;33786;48.690;9.562;2023-05-15T09:00:34;21.90;89.80
48019;DHT22;33786;48.690;9.562;2023-05-15T09:03:01;22.30;89.40
48019;DHT22;33786;48.690;9.562;2023-05-15T09:05:28;22.10;90.60
48019;DHT22;33786;48.690;9.562;2023-05-15T09:07:55;22.20;90.70
48019;DHT22;33786;48.690;9.562;2023-05-15T09:10:22;22.20;90.40
48019;DHT22;33786;48.690;9.562;2023-05-15T09:12:49;22.40;88.20
48019;DHT22;33786;48.690;9.562;2023-05-15T09:15:17;22.80;90.50
48019;DHT22;33786;48.690;9.562;2023-05-15T09:17:47;22.90;90.00
48019;DHT22;33786;48.690;9.562;2023-05-15T09:20:24;23.10;86.70
48019;DHT22;33786;48.690;9.562;2023-05-15T09:22:51;23.90;86.40
48019;DHT22;33786;48.690;9.562;2023-05-15T09:25:30;23.70;88.00
48019;DHT22;33786;48.690;9.562;2023-05-15T09:27:58;23.60;87.30
48019;DHT22;33786;48.690;9.562;2023-05-15T09:30:25;23.10;87.60
48019;DHT22;33786;48.690;9.562;2023-05-15T09:32:52;22.60;88.00
48019;DHT22;33786;48.690;9.562;2023-05-15T09:35:33;22.50;88.60
48019;DHT22;33786;48.690;9.562;2023-05-15T09:38:00;22.50;85.90
48019;DHT22;33786;48.690;9.562;2023-05-15T09:40:28;22.60;85.50
48019;DHT22;33786;48.690;9.562;2023-05-15T09:42:56;22.40;88.30
48019;DHT22;33786;48.690;9.562;2023-05-15T09:45:23;22.90;86.20
48019;DHT22;33786;48.690;9.562;2023-05-15T09:47:56;22.50;84.90
48019;DHT22;33786;48.690;9.562;2023-05-15T09:50:30;22.10;85.70
48019;DHT22;33786;48.690;9.562;2023-05-15T09:52:58;21.50;86.70
48019;DHT22;33786;48.690;9.562;2023-05-15T09:55:25;21.20;87.20
48019;DHT22;33786;48.690;9.562;2023-05-15T10:00:32;21.60;85.90
48019;DHT22;33786;48.690;9.562;2023-05-15T10:03:00;21.60;86.90
48019;DHT22;33786;48.690;9.562;2023-05-15T10:05:27;21.70;86.80
48019;DHT22;33786;48.690;9.562;2023-05-15T10:08:09;21.90;86.20
48019;DHT22;33786;48.690;9.562;2023-05-15T10:10:36;22.10;89.20
48019;DHT22;33786;48.690;9.562;2023-05-15T10:13:03;22.10;88.90
48019;DHT22;33786;48.690;9.562;2023-05-15T10:15:31;22.00;87.60
48019;DHT22;33786;48.690;9.562;2023-05-15T10:17:58;22.10;85.40
48019;DHT22;33786;48.690;9.562;2023-05-15T10:20:26;22.60;87.30
48019;DHT22;33786;48.690;9.562;2023-05-15T10:22:54;22.40;86.20
48019;DHT22;33786;48.690;9.562;2023-05-15T10:25:25;23.00;86.40
48019;DHT22;33786;48.690;9.562;2023-05-15T10:27:52;23.30;83.50
48019;DHT22;33786;48.690;9.562;2023-05-15T10:30:19;23.40;84.40
48019;DHT22;33786;48.690;9.562;2023-05-15T10:32:47;23.60;85.90
48019;DHT22;33786;48.690;9.562;2023-05-15T10:35:14;24.10;81.30
48019;DHT22;33786;48.690;9.562;2023-05-15T10:37:42;23.80;80.60
48019;DHT22;33786;48.690;9.562;2023-05-15T10:40:09;24.20;80.90
48019;DHT22;33786;48.690;9.562;2023-05-15T10:42:36;23.80;79.60
48019;DHT22;33786;48.690;9.562;2023-05-15T10:45:04;23.60;80.50
48019;DHT22;33786;48.690;9.562;2023-05-15T10:47:32;23.60;77.50
48019;DHT22;33786;48.690;9.562;2023-05-15T10:49:59;23.90;76.50
48019;DHT22;33786;48.690;9.562;2023-05-15T10:52:26;24.40;78.20
48019;DHT22;33786;48.690;9.562;2023-05-15T10:54:53;24.20;75.50
48019;DHT22;33786;48.690;9.562;2023-05-15T10:57:20;23.60;75.90
48019;DHT22;33786;48.690;9.562;2023-05-15T10:59:48;23.50;78.30
48019;DHT22;33786;48.690;9.562;2023-05-15T11:02:21;23.00;78.40
48019;DHT22;33786;48.690;9.562;2023-05-15T11:04:55;23.00;79.20
48019;DHT22;33786;48.690;9.562;2023-05-15T11:07:22;22.70;81.60
48019;DHT22;33786;48.690;9.562;2023-05-15T11:09:49;22.50;82.50
48019;DHT22;33786;48.690;9.562;2023-05-15T11:12:16;22.70;82.80
48019;DHT22;33786;48.690;9.562;2023-05-15T11:15:16;22.80;83.90
48019;DHT22;33786;48.690;9.562;2023-05-15T11:17:33;23.00;82.10
48019;DHT22;33786;48.690;9.562;2023-05-15T11:19:59;22.90;80.60
48019;DHT22;33786;48.690;9.562;2023-05-15T11:27:36;23.00;82.60
48019;DHT22;33786;48.690;9.562;2023-05-15T11:30:16;23.30;82.70
48019;DHT22;33786;48.690;9.562;2023-05-15T11:35:13;23.50;82.30
48019;DHT22;33786;48.690;9.562;2023-05-15T11:37:51;23.40;80.80
48019;DHT22;33786;48.690;9.562;2023-05-15T11:45:29;22.30;82.30
48019;DHT22;33786;48.690;9.562;2023-05-15T11:47:58;22.10;85.60
48019;DHT22;33786;48.690;9.562;2023-05-15T11:50:25;22.50;83.90
48019;DHT22;33786;48.690;9.562;2023-05-15T11:52:52;22.80;77.30
48019;DHT22;33786;48.690;9.562;2023-05-15T11:55:19;22.90;77.20
48019;DHT22;33786;48.690;9.562;2023-05-15T11:57:46;23.20;76.10
48019;DHT22;33786;48.690;9.562;2023-05-15T12:00:13;23.60;76.40
48019;DHT22;33786;48.690;9.562;2023-05-15T12:02:41;24.00;77.40
48019;DHT22;33786;48.690;9.562;2023-05-15T12:05:08;24.00;75.50
48019;DHT22;33786;48.690;9.562;2023-05-15T12:07:36;24.40;75.90
48019;DHT22;33786;48.690;9.562;2023-05-15T12:10:03;24.60;75.10
48019;DHT22;33786;48.690;9.562;2023-05-15T12:12:30;24.70;74.00
48019;DHT22;33786;48.690;9.562;2023-05-15T12:14:57;24.20;74.80
48019;DHT22;33786;48.690;9.562;2023-05-15T12:17:24;24.20;74.80
48019;DHT22;33786;48.690;9.562;2023-05-15T12:19:53;23.10;74.50
48019;DHT22;33786;48.690;9.562;2023-05-15T12:22:21;22.60;77.30
48019;DHT22;33786;48.690;9.562;2023-05-15T12:24:48;22.60;76.80
48019;DHT22;33786;48.690;9.562;2023-05-15T12:27:14;22.40;75.90
48019;DHT22;33786;48.690;9.562;2023-05-15T12:29:41;21.90;78.30
48019;DHT22;33786;48.690;9.562;2023-05-15T12:32:08;21.30;78.80
48019;DHT22;33786;48.690;9.562;2023-05-15T12:34:36;21.10;78.40
48019;DHT22;33786;48.690;9.562;2023-05-15T12:37:03;20.70;79.10
48019;DHT22;33786;48.690;9.562;2023-05-15T12:39:30;20.20;81.00
48019;DHT22;33786;48.690;9.562;2023-05-15T12:41:57;19.90;80.10
48019;DHT22;33786;48.690;9.562;2023-05-15T12:44:24;20.10;80.40
48019;DHT22;33786;48.690;9.562;2023-05-15T12:46:52;20.50;79.70
48019;DHT22;33786;48.690;9.562;2023-05-15T12:49:20;20.80;77.20
48019;DHT22;33786;48.690;9.562;2023-05-15T12:51:47;20.80;78.00
48019;DHT22;33786;48.690;9.562;2023-05-15T12:54:17;21.40;76.80
48019;DHT22;33786;48.690;9.562;2023-05-15T12:56:44;21.90;75.00
48019;DHT22;33786;48.690;9.562;2023-05-15T12:59:11;22.20;74.90
48019;DHT22;33786;48.690;9.562;2023-05-15T13:01:39;21.40;73.80
48019;DHT22;33786;48.690;9.562;2023-05-15T13:04:06;20.90;75.30
48019;DHT22;33786;48.690;9.562;2023-05-15T13:06:34;21.00;75.90
48019;DHT22;33786;48.690;9.562;2023-05-15T13:09:12;20.80;75.20
48019;DHT22;33786;48.690;9.562;2023-05-15T13:11:42;21.00;77.10
48019;DHT22;33786;48.690;9.562;2023-05-15T13:14:08;21.10;78.00
48019;DHT22;33786;48.690;9.562;2023-05-15T13:16:43;21.60;75.70
48019;DHT22;33786;48.690;9.562;2023-05-15T13:19:10;21.50;76.20
48019;DHT22;33786;48.690;9.562;2023-05-15T13:21:37;21.60;77.00
48019;DHT22;33786;48.690;9.562;2023-05-15T13:24:04;21.60;76.40
48019;DHT22;33786;48.690;9.562;2023-05-15T13:26:30;20.90;75.80
48019;DHT22;33786;48.690;9.562;2023-05-15T13:28:57;20.60;77.50
48019;DHT22;33786;48.690;9.562;2023-05-15T13:31:24;20.60;78.80
48019;DHT22;33786;48.690;9.562;2023-05-15T13:33:51;20.80;79.10
48019;DHT22;33786;48.690;9.562;2023-05-15T13:36:18;20.90;76.40
48019;DHT22;33786;48.690;9.562;2023-05-15T13:38:45;20.60;76.80
48019;DHT22;33786;48.690;9.562;2023-05-15T13:41:11;20.80;78.80
48019;DHT22;33786;48.690;9.562;2023-05-15T13:43:38;20.90;78.90
48019;DHT22;33786;48.690;9.562;2023-05-15T13:46:05;20.70;77.10
48019;DHT22;33786;48.690;9.562;2023-05-15T13:48:31;20.70;77.00
48019;DHT22;33786;48.690;9.562;2023-05-15T13:50:58;21.20;76.90
48019;DHT22;33786;48.690;9.562;2023-05-15T13:53:25;21.50;77.00
48019;DHT22;33786;48.690;9.562;2023-05-15T13:55:51;21.30;76.00
48019;DHT22;33786;48.690;9.562;2023-05-15T13:58:18;21.50;75.70
48019;DHT22;33786;48.690;9.562;2023-05-15T14:00:45;21.70;75.00
48019;DHT22;33786;48.690;9.562;2023-05-15T14:03:12;21.60;75.40
48019;DHT22;33786;48.690;9.562;2023-05-15T14:05:40;21.80;75.80
48019;DHT22;33786;48.690;9.562;2023-05-15T14:08:07;22.00;74.50
48019;DHT22;33786;48.690;9.562;2023-05-15T14:10:35;22.40;76.70
48019;DHT22;33786;48.690;9.562;2023-05-15T14:13:01;22.00;75.60
48019;DHT22;33786;48.690;9.562;2023-05-15T14:15:28;21.80;76.30
48019;DHT22;33786;48.690;9.562;2023-05-15T14:17:55;21.50;74.30
48019;DHT22;33786;48.690;9.562;2023-05-15T14:20:22;21.30;75.80
48019;DHT22;33786;48.690;9.562;2023-05-15T14:22:49;21.30;74.60
48019;DHT22;33786;48.690;9.562;2023-05-15T14:25:15;21.60;75.50
48019;DHT22;33786;48.690;9.562;2023-05-15T14:27:42;21.80;74.50
48019;DHT22;33786;48.690;9.562;2023-05-15T14:30:09;21.70;74.70
48019;DHT22;33786;48.690;9.562;2023-05-15T14:32:36;22.00;75.80
48019;DHT22;33786;48.690;9.562;2023-05-15T14:35:03;21.80;73.30
48019;DHT22;33786;48.690;9.562;2023-05-15T14:37:30;21.70;73.80
48019;DHT22;33786;48.690;9.562;2023-05-15T14:39:57;21.50;73.90
48019;DHT22;33786;48.690;9.562;2023-05-15T14:42:24;21.90;74.20
48019;DHT22;33786;48.690;9.562;2023-05-15T14:44:52;22.20;73.40
48019;DHT22;33786;48.690;9.562;2023-05-15T14:47:19;22.10;71.10
48019;DHT22;33786;48.690;9.562;2023-05-15T14:49:46;21.40;73.00
48019;DHT22;33786;48.690;9.562;2023-05-15T14:52:13;21.20;74.00
48019;DHT22;33786;48.690;9.562;2023-05-15T14:54:39;21.00;74.30
48019;DHT22;33786;48.690;9.562;2023-05-15T14:57:06;20.70;74.80
48019;DHT22;33786;48.690;9.562;2023-05-15T14:59:33;20.60;75.10
48019;DHT22;33786;48.690;9.562;2023-05-15T15:02:00;20.40;74.80
48019;DHT22;33786;48.690;9.562;2023-05-15T15:04:27;20.40;76.30
48019;DHT22;33786;48.690;9.562;2023-05-15T15:06:56;20.40;75.60
48019;DHT22;33786;48.690;9.562;2023-05-15T15:09:23;20.30;75.80
48019;DHT22;33786;48.690;9.562;2023-05-15T15:11:49;20.30;75.20
48019;DHT22;33786;48.690;9.562;2023-05-15T15:14:16;20.30;75.00
48019;DHT22;33786;48.690;9.562;2023-05-15T15:16:43;20.30;74.80
48019;DHT22;33786;48.690;9.562;2023-05-15T15:19:11;20.40;73.50
48019;DHT22;33786;48.690;9.562;2023-05-15T15:21:38;20.20;73.90
48019;DHT22;33786;48.690;9.562;2023-05-15T15:24:05;20.10;73.40
48019;DHT22;33786;48.690;9.562;2023-05-15T15:26:32;20.00;73.50
48019;DHT22;33786;48.690;9.562;2023-05-15T15:28:59;19.80;73.30
48019;DHT22;33786;48.690;9.562;2023-05-15T15:31:29;19.90;73.60
48019;DHT22;33786;48.690;9.562;2023-05-15T15:33:56;20.00;74.50
48019;DHT22;33786;48.690;9.562;2023-05-15T15:36:23;20.40;74.70
48019;DHT22;33786;48.690;9.562;2023-05-15T15:38:50;20.40;73.20
48019;DHT22;33786;48.690;9.562;2023-05-15T15:41:17;20.30;73.70
48019;DHT22;33786;48.690;9.562;2023-05-15T15:43:43;20.60;75.10
48019;DHT22;33786;48.690;9.562;2023-05-15T15:46:10;21.10;74.50
48019;DHT22;33786;48.690;9.562;2023-05-15T15:48:37;21.20;72.00
48019;DHT22;33786;48.690;9.562;2023-05-15T15:51:04;21.00;70.40
48019;DHT22;33786;48.690;9.562;2023-05-15T15:53:31;21.00;71.30
48019;DHT22;33786;48.690;9.562;2023-05-15T15:55:59;20.70;71.80
48019;DHT22;33786;48.690;9.562;2023-05-15T15:58:27;20.10;77.10